Time;durP1;ratioP1;P1;durP2;ratioP2;P2;SDS_P1;SDS_P2;PMS_P1;PMS_P2;Temp;Humidity;BMP_temperature;BMP_pressure;BME280_temperature;BME280_humidity;BME280_pressure;Samples;Min_cycle;Max_cycle;Signal;HPM_P1;HPM_P2
2022/10/08 00:01:44;;;;;;;9.03;2.23;;;12.70;99.90;;;;;;5061703;28;20190;-44
2022/10/08 00:04:12;;;;;;;4.00;1.67;;;12.70;99.90;;;;;;5056099;28;20206;-44
2022/10/08 00:06:38;;;;;;;6.20;2.07;;;12.70;99.90;;;;;;5060230;28;20472;-44
2022/10/08 00:09:07;;;;;;;5.87;2.10;;;12.70;99.90;;;;;;5066126;28;20214;-43
2022/10/08 00:11:36;;;;;;;6.23;1.97;;;12.60;99.90;;;;;;5053513;28;20203;-42
2022/10/08 00:14:03;;;;;;;5.20;1.80;;;12.70;99.90;;;;;;5062751;28;20224;-42
2022/10/08 00:16:32;;;;;;;5.90;2.00;;;12.60;99.90;;;;;;5067369;28;20190;-45
2022/10/08 00:19:02;;;;;;;8.67;2.00;;;12.60;99.90;;;;;;5056159;28;20229;-42
2022/10/08 00:21:31;;;;;;;8.13;1.97;;;12.60;99.90;;;;;;5058720;28;20205;-43
2022/10/08 00:24:00;;;;;;;6.73;2.10;;;12.60;99.90;;;;;;5052696;28;20201;-44
2022/10/08 00:26:28;;;;;;;5.67;2.13;;;12.60;99.90;;;;;;5053619;28;20213;-45
2022/10/08 00:28:57;;;;;;;5.97;2.10;;;12.50;99.90;;;;;;5042233;28;20215;-43
2022/10/08 00:31:27;;;;;;;5.57;1.73;;;12.50;99.90;;;;;;5053041;28;20301;-43
2022/10/08 00:33:55;;;;;;;5.40;1.70;;;12.50;99.90;;;;;;5056333;28;20198;-43
2022/10/08 00:36:25;;;;;;;7.13;2.10;;;12.50;99.90;;;;;;5059052;28;20201;-42
2022/10/08 00:38:55;;;;;;;6.20;2.40;;;12.40;99.90;;;;;;5061656;28;20222;-42
2022/10/08 00:41:26;;;;;;;5.73;1.87;;;12.40;99.90;;;;;;5055344;28;20210;-43
2022/10/08 00:43:55;;;;;;;5.40;1.93;;;12.40;99.90;;;;;;5044724;28;20219;-42
2022/10/08 00:46:26;;;;;;;7.60;2.27;;;12.40;99.90;;;;;;5057784;28;20209;-42
2022/10/08 00:48:59;;;;;;;6.77;2.17;;;12.40;99.90;;;;;;5058753;28;20210;-44
2022/10/08 00:51:28;;;;;;;8.57;3.27;;;12.30;99.90;;;;;;5061254;28;20395;-44
2022/10/08 00:53:55;;;;;;;9.93;2.53;;;12.30;99.90;;;;;;5064082;28;20194;-42
2022/10/08 00:56:23;;;;;;;5.20;2.20;;;12.30;99.90;;;;;;5061444;28;20189;-43
2022/10/08 00:58:51;;;;;;;8.57;2.07;;;12.20;99.90;;;;;;5049802;28;20756;-45
2022/10/08 01:01:18;;;;;;;8.30;2.40;;;12.20;99.90;;;;;;5053323;28;20202;-46
2022/10/08 01:03:45;;;;;;;6.00;1.77;;;12.20;99.90;;;;;;5049429;28;20285;-43
2022/10/08 01:06:21;;;;;;;11.07;2.30;;;12.20;99.90;;;;;;5055880;28;20202;-42
2022/10/08 01:08:54;;;;;;;7.50;2.40;;;12.20;99.90;;;;;;5058589;28;20752;-43
2022/10/08 01:11:31;;;;;;;10.10;1.90;;;12.10;99.90;;;;;;5074379;28;20204;-45
2022/10/08 01:14:10;;;;;;;6.93;2.00;;;12.10;99.90;;;;;;5053182;28;20206;-44
2022/10/08 01:16:44;;;;;;;9.90;2.73;;;12.10;99.90;;;;;;5033437;28;22488;-42
2022/10/08 01:19:33;;;;;;;5.80;2.17;;;12.10;99.90;;;;;;5054548;28;20296;-42
2022/10/08 01:22:09;;;;;;;8.87;2.37;;;12.00;99.90;;;;;;5043131;28;20214;-43
2022/10/08 01:27:40;;;;;;;13.37;2.40;;;12.00;99.90;;;;;;5045914;28;20202;-43
2022/10/08 01:30:13;;;;;;;7.63;2.30;;;11.90;99.90;;;;;;5041776;28;20681;-43
2022/10/08 01:32:47;;;;;;;8.10;2.47;;;11.90;99.90;;;;;;5070812;28;20220;-42
2022/10/08 01:35:20;;;;;;;5.97;2.10;;;11.70;99.90;;;;;;5061771;28;20206;-42
2022/10/08 01:37:49;;;;;;;8.17;2.20;;;11.90;99.90;;;;;;5060325;28;20252;-42
2022/10/08 01:40:20;;;;;;;9.80;2.40;;;11.80;99.90;;;;;;5063696;28;20219;-43
2022/10/08 01:42:52;;;;;;;9.87;2.40;;;11.80;99.90;;;;;;5054706;28;20216;-43
2022/10/08 01:45:24;;;;;;;6.77;2.37;;;11.80;99.90;;;;;;5047306;28;20203;-42
2022/10/08 01:47:52;;;;;;;5.67;2.30;;;11.80;99.90;;;;;;5051236;28;20234;-44
2022/10/08 01:50:23;;;;;;;7.90;2.40;;;11.80;99.90;;;;;;5066039;28;20198;-43
2022/10/08 01:52:54;;;;;;;6.03;2.20;;;11.80;99.90;;;;;;5055636;28;20203;-42
2022/10/08 01:55:26;;;;;;;10.43;2.13;;;11.80;99.90;;;;;;5065284;28;20708;-43
2022/10/08 01:57:57;;;;;;;9.17;2.30;;;11.80;99.90;;;;;;5061809;28;20211;-43
2022/10/08 02:00:24;;;;;;;5.07;2.10;;;11.80;99.90;;;;;;5059265;28;20250;-42
2022/10/08 02:02:55;;;;;;;6.40;1.97;;;11.80;99.90;;;;;;5045504;28;20223;-44
2022/10/08 02:05:24;;;;;;;8.03;2.30;;;11.80;99.90;;;;;;5058423;28;20195;-44
2022/10/08 02:07:51;;;;;;;5.10;2.03;;;11.80;99.90;;;;;;5056432;28;20250;-46
2022/10/08 02:10:22;;;;;;;5.83;2.70;;;11.80;99.90;;;;;;5065511;28;20194;-45
2022/10/08 02:12:49;;;;;;;6.73;2.00;;;11.80;99.90;;;;;;5070319;28;20195;-45
2022/10/08 02:15:21;;;;;;;8.17;2.07;;;11.80;99.90;;;;;;5059842;28;20198;-43
2022/10/08 02:17:56;;;;;;;9.73;2.70;;;11.80;99.90;;;;;;5050217;28;20253;-41
2022/10/08 02:20:30;;;;;;;5.27;2.30;;;11.80;99.90;;;;;;5061060;28;20222;-43
2022/10/08 02:23:07;;;;;;;10.03;2.33;;;11.90;99.90;;;;;;5054903;28;20968;-43
2022/10/08 02:25:40;;;;;;;7.07;2.60;;;11.90;99.90;;;;;;5057942;28;20596;-42
2022/10/08 02:28:16;;;;;;;5.47;2.00;;;11.90;99.90;;;;;;5061153;28;20223;-42
2022/10/08 02:30:50;;;;;;;5.13;1.80;;;12.00;99.90;;;;;;5054098;28;20206;-44
2022/10/08 02:33:25;;;;;;;7.33;2.17;;;12.00;99.90;;;;;;5041646;28;20221;-41
2022/10/08 02:35:56;;;;;;;7.20;2.13;;;12.00;99.90;;;;;;5045554;28;20245;-43
2022/10/08 02:38:27;;;;;;;7.33;2.57;;;12.00;99.90;;;;;;5056753;28;20238;-42
2022/10/08 02:40:58;;;;;;;8.13;3.00;;;12.10;99.90;;;;;;5061546;28;20217;-44
2022/10/08 02:43:29;;;;;;;12.73;3.00;;;12.10;99.90;;;;;;5063923;28;20674;-44
2022/10/08 02:46:01;;;;;;;8.07;2.80;;;12.10;99.90;;;;;;5054850;28;20221;-45
2022/10/08 02:48:31;;;;;;;13.57;3.03;;;12.10;99.90;;;;;;5052238;28;20222;-43
2022/10/08 02:51:01;;;;;;;9.27;2.73;;;12.10;99.90;;;;;;5049011;28;20187;-43
2022/10/08 02:53:29;;;;;;;9.47;2.60;;;12.10;99.90;;;;;;5056778;28;20707;-41
2022/10/08 02:56:06;;;;;;;10.27;2.50;;;12.10;99.90;;;;;;5060930;28;20926;-46
2022/10/08 02:58:33;;;;;;;11.47;2.60;;;12.10;99.90;;;;;;5064976;28;20297;-43
2022/10/08 03:01:08;;;;;;;10.23;2.33;;;12.10;99.90;;;;;;5054469;28;20291;-42
2022/10/08 03:03:39;;;;;;;12.13;3.23;;;12.10;99.90;;;;;;5051660;28;20206;-42
2022/10/08 03:06:09;;;;;;;10.20;2.40;;;12.10;99.90;;;;;;5060924;28;20202;-44
2022/10/08 03:08:40;;;;;;;7.03;2.20;;;12.10;99.90;;;;;;5053585;28;20231;-42
2022/10/08 03:11:08;;;;;;;7.07;2.13;;;12.10;99.90;;;;;;5073701;28;20871;-42
2022/10/08 03:13:39;;;;;;;7.93;2.37;;;12.10;99.90;;;;;;5075529;28;20200;-43
2022/10/08 03:16:12;;;;;;;10.43;2.67;;;12.10;99.90;;;;;;5064938;28;20191;-46
2022/10/08 03:18:40;;;;;;;6.90;2.10;;;12.10;99.90;;;;;;5052060;28;20233;-43
2022/10/08 03:21:08;;;;;;;11.10;2.57;;;12.10;99.90;;;;;;5050925;28;20207;-44
2022/10/08 03:23:36;;;;;;;9.93;2.60;;;12.10;99.90;;;;;;5056079;28;20213;-47
2022/10/08 03:26:02;;;;;;;11.33;3.70;;;12.10;99.90;;;;;;5059992;28;20186;-42
2022/10/08 03:28:30;;;;;;;10.70;2.60;;;12.10;99.90;;;;;;5072038;28;20211;-42
2022/10/08 03:30:56;;;;;;;6.80;3.17;;;12.10;99.90;;;;;;5058008;28;20207;-42
2022/10/08 03:33:24;;;;;;;4.60;2.53;;;12.10;99.90;;;;;;5055815;28;20210;-42
2022/10/08 03:35:51;;;;;;;8.07;2.40;;;12.10;99.90;;;;;;5047367;28;20947;-42
2022/10/08 03:38:18;;;;;;;9.57;3.60;;;12.20;99.90;;;;;;5045588;28;20233;-42
2022/10/08 03:40:54;;;;;;;6.73;3.23;;;12.20;99.90;;;;;;5063819;28;20238;-43
2022/10/08 03:43:21;;;;;;;12.83;3.07;;;12.10;99.90;;;;;;5057500;28;20191;-42
2022/10/08 03:45:50;;;;;;;6.63;2.43;;;12.10;99.90;;;;;;5062400;28;20233;-43
2022/10/08 03:48:17;;;;;;;10.00;3.47;;;12.10;99.90;;;;;;5050779;28;20229;-46
2022/10/08 03:50:51;;;;;;;7.83;3.47;;;12.20;99.90;;;;;;5041394;28;20226;-44
2022/10/08 03:53:18;;;;;;;9.17;3.33;;;12.10;99.90;;;;;;5040141;28;20186;-45
2022/10/08 03:55:45;;;;;;;12.60;3.13;;;12.10;99.90;;;;;;5055852;28;20199;-42
2022/10/08 03:58:12;;;;;;;8.73;3.23;;;12.10;99.90;;;;;;5060061;28;20221;-43
2022/10/08 04:00:38;;;;;;;12.00;4.10;;;12.10;99.90;;;;;;5065383;28;20233;-42
2022/10/08 04:03:06;;;;;;;6.70;3.30;;;12.10;99.90;;;;;;5058673;28;20191;-42
2022/10/08 04:05:32;;;;;;;13.33;2.83;;;12.10;99.90;;;;;;5053295;28;20214;-43
2022/10/08 04:08:01;;;;;;;10.67;3.90;;;12.20;99.90;;;;;;5066891;28;20234;-44
2022/10/08 04:10:27;;;;;;;10.13;3.90;;;12.10;99.90;;;;;;5045624;28;20196;-42
2022/10/08 04:12:54;;;;;;;10.70;4.97;;;12.10;99.90;;;;;;5062277;28;20204;-42
2022/10/08 04:15:21;;;;;;;8.60;3.20;;;12.10;99.90;;;;;;5065770;28;20195;-42
2022/10/08 04:17:48;;;;;;;11.47;2.97;;;12.10;99.90;;;;;;5063157;28;20213;-42
2022/10/08 04:20:15;;;;;;;18.27;3.93;;;12.10;99.90;;;;;;5056884;28;20218;-42
2022/10/08 04:22:42;;;;;;;9.73;4.03;;;12.10;99.90;;;;;;5066556;28;20698;-44
2022/10/08 04:25:10;;;;;;;8.13;3.10;;;12.10;99.90;;;;;;5048101;28;20198;-43
2022/10/08 04:27:37;;;;;;;10.83;3.70;;;12.10;99.90;;;;;;5066032;28;20198;-43
2022/10/08 04:30:05;;;;;;;10.13;3.50;;;12.10;99.90;;;;;;5069055;28;20192;-42
2022/10/08 04:32:32;;;;;;;8.73;3.50;;;12.10;99.90;;;;;;5060802;28;20253;-42
2022/10/08 04:34:58;;;;;;;11.20;3.53;;;12.10;99.90;;;;;;5057723;28;20203;-46
2022/10/08 04:37:26;;;;;;;10.93;4.20;;;12.10;99.90;;;;;;5041690;28;20575;-42
2022/10/08 04:39:53;;;;;;;7.87;2.90;;;12.10;99.90;;;;;;5056030;28;20705;-42
2022/10/08 04:42:21;;;;;;;8.67;3.20;;;12.00;99.90;;;;;;5059597;28;20759;-42
2022/10/08 04:44:48;;;;;;;8.33;2.73;;;12.00;99.90;;;;;;5062393;28;20191;-42
2022/10/08 04:47:15;;;;;;;9.30;2.77;;;12.00;99.90;;;;;;5061646;28;20190;-44
2022/10/08 04:49:42;;;;;;;10.23;3.03;;;12.00;99.90;;;;;;5068561;28;20810;-42
2022/10/08 04:52:09;;;;;;;6.63;3.07;;;12.00;99.90;;;;;;5054808;28;20210;-43
2022/10/08 04:54:36;;;;;;;8.90;3.20;;;12.00;99.90;;;;;;5044601;28;20244;-44
2022/10/08 04:57:03;;;;;;;8.63;3.40;;;12.00;99.90;;;;;;5056939;28;20234;-42
2022/10/08 04:59:31;;;;;;;12.63;5.20;;;11.90;99.90;;;;;;5063152;28;20226;-43
2022/10/08 05:01:58;;;;;;;8.80;3.23;;;11.90;99.90;;;;;;5066426;28;20194;-41
2022/10/08 05:04:25;;;;;;;11.87;3.00;;;11.90;99.90;;;;;;5062563;28;20194;-44
2022/10/08 05:06:52;;;;;;;7.97;4.23;;;11.90;99.90;;;;;;5060616;28;20289;-42
2022/10/08 05:09:19;;;;;;;9.73;3.63;;;11.90;99.90;;;;;;5050612;28;20967;-42
2022/10/08 05:11:46;;;;;;;10.53;3.60;;;11.90;99.90;;;;;;5062844;28;20209;-42
2022/10/08 05:14:13;;;;;;;12.97;4.63;;;11.80;99.90;;;;;;5042701;28;20202;-42
2022/10/08 05:16:41;;;;;;;10.80;4.50;;;11.80;99.90;;;;;;5059866;28;20209;-41
2022/10/08 05:19:08;;;;;;;13.27;3.93;;;11.80;99.90;;;;;;5071985;28;20217;-42
2022/10/08 05:21:35;;;;;;;9.20;3.10;;;11.80;99.90;;;;;;5068282;28;20199;-47
2022/10/08 05:24:05;;;;;;;13.73;4.70;;;11.80;99.90;;;;;;5053504;28;20218;-43
2022/10/08 05:26:35;;;;;;;12.27;4.70;;;11.80;99.90;;;;;;5054675;28;20202;-44
2022/10/08 05:29:02;;;;;;;9.47;4.07;;;11.80;99.90;;;;;;5071554;28;20331;-45
2022/10/08 05:31:30;;;;;;;10.57;4.40;;;11.80;99.90;;;;;;5059877;28;20202;-43
2022/10/08 05:33:59;;;;;;;8.77;4.40;;;11.80;99.90;;;;;;5065282;28;20194;-42
2022/10/08 05:36:27;;;;;;;7.37;4.13;;;11.80;99.90;;;;;;5057963;28;21116;-42
2022/10/08 05:38:55;;;;;;;8.00;3.07;;;11.80;99.90;;;;;;5060251;28;20582;-42
2022/10/08 05:41:24;;;;;;;10.10;3.57;;;11.70;99.90;;;;;;5050783;28;20222;-42
2022/10/08 05:43:51;;;;;;;10.90;4.23;;;11.70;99.90;;;;;;5060356;28;20736;-43
2022/10/08 05:46:18;;;;;;;8.33;3.40;;;11.70;99.90;;;;;;5061831;28;20289;-43
2022/10/08 05:48:45;;;;;;;8.23;3.67;;;11.70;99.90;;;;;;5066065;28;20222;-42
2022/10/08 05:51:15;;;;;;;7.33;3.47;;;11.70;99.90;;;;;;5050058;28;20280;-44
2022/10/08 05:53:43;;;;;;;12.77;3.97;;;11.70;99.90;;;;;;5058814;28;20202;-43
2022/10/08 05:56:11;;;;;;;8.93;3.60;;;11.60;99.90;;;;;;5049850;28;20767;-44
2022/10/08 05:58:40;;;;;;;13.17;4.00;;;11.60;99.90;;;;;;5061245;28;20770;-43
2022/10/08 06:01:10;;;;;;;6.47;3.43;;;11.60;99.90;;;;;;5073460;28;20215;-44
2022/10/08 06:03:37;;;;;;;6.40;3.73;;;11.60;99.90;;;;;;5072339;28;20643;-44
2022/10/08 06:06:06;;;;;;;8.00;4.10;;;11.60;99.90;;;;;;5058955;28;20280;-43
2022/10/08 06:08:35;;;;;;;15.43;4.40;;;11.60;99.90;;;;;;5063971;28;20217;-43
2022/10/08 06:11:04;;;;;;;11.47;3.80;;;11.60;99.90;;;;;;5045281;28;20286;-44
2022/10/08 06:13:32;;;;;;;8.03;4.23;;;11.60;99.90;;;;;;5066620;28;20207;-43
2022/10/08 06:16:01;;;;;;;8.00;3.80;;;11.60;99.90;;;;;;5059630;28;20668;-45
2022/10/08 06:18:30;;;;;;;11.53;3.20;;;11.60;99.90;;;;;;5061180;28;20218;-45
2022/10/08 06:20:57;;;;;;;16.33;4.53;;;11.50;99.90;;;;;;5057025;28;20215;-43
2022/10/08 06:23:24;;;;;;;13.47;5.13;;;11.50;99.90;;;;;;5055632;28;20198;-43
2022/10/08 06:25:52;;;;;;;15.97;4.00;;;11.50;99.90;;;;;;5047799;28;20253;-43
2022/10/08 06:28:19;;;;;;;13.50;4.73;;;11.50;99.90;;;;;;5044257;28;20843;-43
2022/10/08 06:30:46;;;;;;;12.27;3.90;;;11.50;99.90;;;;;;5062494;28;20187;-43
2022/10/08 06:33:15;;;;;;;12.23;4.83;;;11.60;99.90;;;;;;5053042;28;20256;-44
2022/10/08 06:35:41;;;;;;;9.13;4.13;;;11.50;99.90;;;;;;5065424;28;20210;-42
2022/10/08 06:38:08;;;;;;;9.67;4.33;;;11.60;99.90;;;;;;5049938;28;20211;-45
2022/10/08 06:40:37;;;;;;;13.00;4.10;;;11.60;99.90;;;;;;5062076;28;20216;-45
2022/10/08 06:43:07;;;;;;;12.73;3.67;;;11.60;99.90;;;;;;5050474;28;20223;-43
2022/10/08 06:45:38;;;;;;;11.03;4.17;;;11.60;99.90;;;;;;5050692;28;20350;-44
2022/10/08 06:48:05;;;;;;;10.13;3.87;;;11.70;99.90;;;;;;5058201;28;21457;-43
2022/10/08 06:50:33;;;;;;;13.80;3.80;;;11.70;99.90;;;;;;5054648;28;20191;-43
2022/10/08 06:52:59;;;;;;;10.77;3.90;;;11.70;99.90;;;;;;5059573;28;20199;-43
2022/10/08 06:55:26;;;;;;;10.00;3.60;;;11.70;99.90;;;;;;5055764;28;20190;-43
2022/10/08 06:57:53;;;;;;;11.70;3.60;;;11.70;99.90;;;;;;5038028;28;20234;-43
2022/10/08 07:00:21;;;;;;;7.70;3.20;;;11.70;99.90;;;;;;5037519;28;20204;-42
2022/10/08 07:02:48;;;;;;;9.83;3.77;;;11.80;99.90;;;;;;5063801;28;20656;-43
2022/10/08 07:05:15;;;;;;;7.87;3.50;;;11.80;99.90;;;;;;5061957;28;20682;-43
2022/10/08 07:07:42;;;;;;;10.90;2.77;;;11.90;99.90;;;;;;5058145;28;20282;-44
2022/10/08 07:10:09;;;;;;;6.63;3.17;;;11.90;99.90;;;;;;5060850;28;20190;-41
2022/10/08 07:12:36;;;;;;;6.67;2.47;;;12.00;99.90;;;;;;5040156;28;20222;-43
2022/10/08 07:15:04;;;;;;;5.37;2.90;;;12.10;99.90;;;;;;5049237;28;20286;-44
2022/10/08 07:17:32;;;;;;;7.00;2.73;;;12.10;99.90;;;;;;5053381;28;20195;-45
2022/10/08 07:19:58;;;;;;;9.50;2.50;;;12.20;99.90;;;;;;5057761;28;20562;-43
2022/10/08 07:22:25;;;;;;;9.20;2.87;;;12.20;99.90;;;;;;5067324;28;20186;-43
2022/10/08 07:24:52;;;;;;;6.70;2.83;;;12.30;99.90;;;;;;5062910;28;20253;-45
2022/10/08 07:27:19;;;;;;;10.73;2.40;;;12.40;99.90;;;;;;5046142;28;20217;-43
2022/10/08 07:29:46;;;;;;;8.17;2.57;;;12.40;99.90;;;;;;5065867;28;20225;-44
2022/10/08 07:32:13;;;;;;;7.63;3.00;;;12.40;99.90;;;;;;5055056;28;20199;-44
2022/10/08 07:34:41;;;;;;;7.40;3.20;;;12.50;99.90;;;;;;5059532;28;20206;-43
2022/10/08 07:37:08;;;;;;;7.40;2.60;;;12.50;99.90;;;;;;5060952;28;20190;-43
2022/10/08 07:39:35;;;;;;;6.13;2.73;;;12.60;99.90;;;;;;5055440;28;20385;-43
2022/10/08 07:42:02;;;;;;;5.57;2.13;;;12.60;99.90;;;;;;5062014;28;20919;-45
2022/10/08 07:44:28;;;;;;;7.47;2.77;;;12.70;99.90;;;;;;5051617;28;20209;-44
2022/10/08 07:46:56;;;;;;;8.73;2.47;;;12.70;99.90;;;;;;5056698;28;20532;-43
2022/10/08 07:49:22;;;;;;;9.77;2.30;;;12.70;99.90;;;;;;5051175;28;20222;-44
2022/10/08 07:51:51;;;;;;;4.30;2.37;;;12.80;99.90;;;;;;5061065;28;20221;-42
2022/10/08 07:54:19;;;;;;;7.53;2.47;;;12.90;99.90;;;;;;5054016;28;20198;-45
2022/10/08 07:56:46;;;;;;;7.90;2.07;;;12.90;99.90;;;;;;5063292;28;20233;-43
2022/10/08 07:59:14;;;;;;;5.43;2.17;;;13.00;99.90;;;;;;5055964;28;20240;-45
2022/10/08 08:01:42;;;;;;;8.23;2.63;;;13.00;99.90;;;;;;5084152;28;20228;-42
2022/10/08 08:04:10;;;;;;;6.07;2.33;;;13.20;99.90;;;;;;5055790;28;20569;-42
2022/10/08 08:06:40;;;;;;;7.97;2.40;;;13.30;99.90;;;;;;5062746;28;20186;-45
2022/10/08 08:09:09;;;;;;;7.07;2.70;;;13.40;99.90;;;;;;5057133;28;20623;-42
2022/10/08 08:11:36;;;;;;;7.93;2.27;;;13.40;99.90;;;;;;5060287;28;20278;-42
2022/10/08 08:14:03;;;;;;;6.33;2.27;;;13.50;99.90;;;;;;5055298;28;20562;-42
2022/10/08 08:16:30;;;;;;;8.90;1.90;;;13.40;99.90;;;;;;5041630;28;20199;-42
2022/10/08 08:18:59;;;;;;;7.33;2.17;;;13.50;99.90;;;;;;5046725;28;20231;-42
2022/10/08 08:21:28;;;;;;;9.20;1.93;;;13.60;99.90;;;;;;5048478;28;20731;-42
2022/10/08 08:23:57;;;;;;;8.47;2.00;;;13.70;99.90;;;;;;5056025;28;20655;-42
2022/10/08 08:26:28;;;;;;;6.25;2.25;;;13.70;99.90;;;;;;5049529;28;21221;-40
2022/10/08 08:28:57;;;;;;;3.80;1.47;;;13.80;99.90;;;;;;5059116;28;20323;-41
2022/10/08 08:31:26;;;;;;;5.17;1.63;;;13.80;99.90;;;;;;5051425;28;20197;-41
2022/10/08 08:33:56;;;;;;;4.93;1.87;;;13.90;99.90;;;;;;5051339;28;20203;-41
2022/10/08 08:36:25;;;;;;;9.70;1.57;;;13.90;99.90;;;;;;5057404;28;20273;-41
2022/10/08 08:38:52;;;;;;;5.00;1.90;;;14.00;99.90;;;;;;5052352;28;20646;-41
2022/10/08 08:41:40;;;;;;;8.37;2.33;;;14.10;99.90;;;;;;5056132;28;20952;-42
2022/10/08 08:44:11;;;;;;;5.50;1.47;;;14.20;99.90;;;;;;5050583;28;20213;-41
2022/10/08 08:46:41;;;;;;;4.27;1.93;;;14.20;99.90;;;;;;5055440;28;20270;-41
2022/10/08 08:49:18;;;;;;;5.23;1.50;;;14.20;99.90;;;;;;5046455;28;20570;-41
2022/10/08 08:51:45;;;;;;;4.73;1.37;;;14.30;99.90;;;;;;5057366;28;20194;-40
2022/10/08 08:54:12;;;;;;;4.20;1.33;;;14.40;99.90;;;;;;5050634;28;20207;-40
2022/10/08 08:56:41;;;;;;;8.60;2.30;;;14.40;99.90;;;;;;5059848;28;20253;-42
2022/10/08 08:59:23;;;;;;;3.87;1.60;;;14.50;99.90;;;;;;5046554;28;20229;-40
2022/10/08 09:01:53;;;;;;;8.50;1.63;;;14.50;99.90;;;;;;5050117;28;20210;-43
2022/10/08 09:04:26;;;;;;;6.40;1.70;;;14.50;99.90;;;;;;5050832;28;20210;-41
2022/10/08 09:06:55;;;;;;;6.40;1.27;;;14.60;99.90;;;;;;5056892;28;20203;-41
2022/10/08 09:09:29;;;;;;;4.60;1.30;;;14.70;99.90;;;;;;5045986;28;20298;-41
2022/10/08 09:11:58;;;;;;;5.67;1.53;;;14.70;99.90;;;;;;5042221;28;20187;-42
2022/10/08 09:14:34;;;;;;;5.60;1.27;;;14.60;99.90;;;;;;5055056;28;20299;-41
2022/10/08 09:17:09;;;;;;;4.47;1.43;;;14.50;99.90;;;;;;5053885;28;20202;-41
2022/10/08 09:19:38;;;;;;;5.20;1.80;;;14.40;99.90;;;;;;5077391;28;20217;-43
2022/10/08 09:22:18;;;;;;;9.80;1.67;;;14.30;99.90;;;;;;5055607;28;20694;-41
2022/10/08 09:24:46;;;;;;;8.20;1.83;;;14.40;99.90;;;;;;5081207;28;20186;-41
2022/10/08 09:27:15;;;;;;;10.03;1.83;;;14.40;99.90;;;;;;5061623;28;20295;-43
2022/10/08 09:29:42;;;;;;;7.10;1.57;;;14.50;99.90;;;;;;5064785;28;20229;-40
2022/10/08 09:32:16;;;;;;;6.27;2.07;;;14.60;99.90;;;;;;5051032;28;20206;-42
2022/10/08 09:34:45;;;;;;;6.30;1.63;;;14.70;99.90;;;;;;5062240;28;20457;-43
2022/10/08 09:37:24;;;;;;;5.90;1.63;;;14.80;99.90;;;;;;5054808;28;20821;-43
2022/10/08 09:40:17;;;;;;;5.07;1.00;;;14.90;99.90;;;;;;5066581;28;20594;-42
2022/10/08 09:43:04;;;;;;;8.13;1.57;;;14.90;99.90;;;;;;5067075;28;20694;-41
2022/10/08 09:45:33;;;;;;;3.07;1.50;;;14.90;99.90;;;;;;5061463;28;20198;-41
2022/10/08 09:48:19;;;;;;;5.40;1.00;;;14.90;99.90;;;;;;5046951;28;20587;-41
2022/10/08 09:50:56;;;;;;;3.70;1.00;;;14.90;99.90;;;;;;5071017;28;20204;-41
2022/10/08 09:53:27;;;;;;;3.47;0.93;;;14.80;99.90;;;;;;5058835;28;20209;-42
2022/10/08 09:55:58;;;;;;;2.87;0.77;;;14.80;99.90;;;;;;5064822;28;20195;-42
2022/10/08 09:58:29;;;;;;;3.00;0.77;;;14.90;99.90;;;;;;5059464;28;20395;-41
2022/10/08 10:01:03;;;;;;;4.60;0.93;;;14.80;99.90;;;;;;5064506;28;20300;-41
2022/10/08 10:03:31;;;;;;;3.70;0.90;;;14.80;99.90;;;;;;5057482;28;20217;-41
2022/10/08 10:05:59;;;;;;;4.37;0.83;;;14.90;99.90;;;;;;5082026;28;20329;-41
2022/10/08 10:08:50;;;;;;;4.57;1.23;;;15.00;99.90;;;;;;5064233;28;20218;-45
2022/10/08 10:11:24;;;;;;;2.80;1.10;;;15.00;99.90;;;;;;5065470;28;20182;-41
2022/10/08 10:13:54;;;;;;;2.73;1.20;;;15.00;99.90;;;;;;5063326;28;20206;-41
2022/10/08 10:16:25;;;;;;;6.37;1.90;;;15.10;99.90;;;;;;5060863;28;20246;-44
2022/10/08 10:18:57;;;;;;;3.97;1.40;;;15.10;99.90;;;;;;5052540;28;20222;-44
2022/10/08 10:21:32;;;;;;;3.10;1.73;;;15.10;99.90;;;;;;5063190;28;20210;-41
2022/10/08 10:24:12;;;;;;;7.07;2.73;;;15.10;99.90;;;;;;5064549;28;20201;-41
2022/10/08 10:26:42;;;;;;;6.27;2.30;;;15.10;99.90;;;;;;5065595;28;20190;-41
2022/10/08 10:29:13;;;;;;;2.63;1.83;;;15.10;99.90;;;;;;5063879;28;20211;-42
2022/10/08 10:31:46;;;;;;;2.00;1.20;;;15.10;99.90;;;;;;5080653;28;20186;-42
2022/10/08 10:34:17;;;;;;;3.60;0.90;;;15.10;99.90;;;;;;5061677;28;20202;-42
2022/10/08 10:36:50;;;;;;;2.13;0.83;;;15.20;99.90;;;;;;5069096;28;20293;-41
2022/10/08 10:39:28;;;;;;;0.70;0.70;;;15.20;99.90;;;;;;5065545;28;20229;-41
2022/10/08 10:42:03;;;;;;;3.73;1.03;;;15.30;99.90;;;;;;5070582;28;20315;-41
2022/10/08 10:44:36;;;;;;;2.03;0.70;;;15.30;99.90;;;;;;5083455;28;20193;-44
2022/10/08 10:47:04;;;;;;;2.10;0.93;;;15.30;99.90;;;;;;5054282;28;20281;-42
2022/10/08 10:49:36;;;;;;;4.83;1.00;;;15.30;99.90;;;;;;5054377;28;20215;-41
2022/10/08 10:52:20;;;;;;;1.93;0.63;;;15.20;99.90;;;;;;5071700;28;20229;-41
2022/10/08 10:55:09;;;;;;;4.37;0.70;;;15.10;99.90;;;;;;5048277;28;20836;-41
2022/10/08 10:57:53;;;;;;;2.10;0.53;;;15.00;99.90;;;;;;5053857;28;20202;-41
2022/10/08 11:00:24;;;;;;;4.87;0.80;;;15.00;99.90;;;;;;5064359;28;20205;-41
2022/10/08 11:02:56;;;;;;;3.57;1.30;;;15.00;99.90;;;;;;5056674;28;20301;-41
2022/10/08 11:05:25;;;;;;;2.70;0.50;;;14.90;99.90;;;;;;5058978;28;20204;-40
2022/10/08 11:08:29;;;;;;;2.53;0.50;;;14.80;99.90;;;;;;5065427;28;20187;-41
2022/10/08 11:11:16;;;;;;;1.30;0.80;;;14.70;99.90;;;;;;5044912;28;20218;-41
2022/10/08 11:14:01;;;;;;;1.30;0.30;;;14.70;99.90;;;;;;5061321;28;20541;-41
2022/10/08 11:16:41;;;;;;;3.40;0.50;;;14.60;99.90;;;;;;5055593;28;20296;-40
2022/10/08 11:19:18;;;;;;;3.40;0.50;;;14.60;99.90;;;;;;5069915;28;20229;-41
2022/10/08 11:21:54;;;;;;;4.00;0.80;;;14.60;99.90;;;;;;5044027;28;20226;-41
2022/10/08 11:24:51;;;;;;;3.07;0.70;;;14.50;99.90;;;;;;5047504;28;20198;-41
2022/10/08 11:27:27;;;;;;;2.40;0.63;;;14.40;99.90;;;;;;5058831;28;20277;-43
2022/10/08 11:30:01;;;;;;;3.03;0.50;;;14.10;99.90;;;;;;5061587;28;20230;-41
2022/10/08 11:32:31;;;;;;;4.23;1.10;;;13.60;99.90;;;;;;5044137;28;22868;-42
2022/10/08 11:35:14;;;;;;;2.13;0.40;;;13.30;99.90;;;;;;5057475;28;20199;-44
2022/10/08 11:37:48;;;;;;;2.30;0.40;;;13.10;99.90;;;;;;5043374;28;20210;-42
2022/10/08 11:40:22;;;;;;;3.50;0.40;;;12.80;99.90;;;;;;5051959;28;20209;-42
2022/10/08 11:42:56;;;;;;;1.33;0.43;;;12.60;99.90;;;;;;5051738;28;20444;-42
2022/10/08 11:45:31;;;;;;;1.53;0.40;;;12.60;99.90;;;;;;5053503;28;20232;-42
2022/10/08 11:48:00;;;;;;;3.07;0.40;;;12.60;99.90;;;;;;5041254;28;20232;-43
2022/10/08 11:50:30;;;;;;;3.10;0.50;;;12.70;99.90;;;;;;5053220;28;20256;-42
2022/10/08 11:53:15;;;;;;;1.60;0.43;;;12.80;99.90;;;;;;5036818;28;21027;-42
2022/10/08 11:55:50;;;;;;;1.80;0.40;;;12.90;99.90;;;;;;5047949;28;20600;-42
2022/10/08 11:58:22;;;;;;;0.30;0.20;;;13.00;99.90;;;;;;5045059;28;20219;-44
2022/10/08 12:00:53;;;;;;;3.33;0.70;;;13.10;99.90;;;;;;5040949;28;20274;-43
2022/10/08 12:03:26;;;;;;;0.53;0.40;;;13.20;99.90;;;;;;5045229;28;20222;-43
2022/10/08 12:05:57;;;;;;;1.57;0.50;;;13.30;99.90;;;;;;5049008;28;20195;-42
2022/10/08 12:08:55;;;;;;;1.27;0.37;;;13.30;99.90;;;;;;5039563;28;20668;-42
2022/10/08 12:11:48;;;;;;;0.57;0.30;;;13.40;99.90;;;;;;5048146;28;20583;-42
2022/10/08 12:14:32;;;;;;;1.13;0.40;;;13.30;99.90;;;;;;5055135;28;20195;-42
2022/10/08 12:17:09;;;;;;;3.30;0.60;;;13.40;99.90;;;;;;5043436;28;20840;-43
2022/10/08 12:22:44;;;;;;;2.23;0.90;;;13.40;99.90;;;;;;5068089;27;20575;-41
2022/10/08 12:25:37;;;;;;;2.20;0.50;;;13.60;99.90;;;;;;5058247;28;20215;-41
2022/10/08 12:28:38;;;;;;;2.60;0.70;;;13.60;99.90;;;;;;5056506;28;20223;-42
2022/10/08 12:31:17;;;;;;;1.90;0.70;;;13.80;99.90;;;;;;5046651;28;20297;-43
2022/10/08 12:33:56;;;;;;;1.83;0.97;;;13.90;99.90;;;;;;5045344;28;20213;-44
2022/10/08 12:36:36;;;;;;;2.60;0.70;;;13.90;99.90;;;;;;5047091;28;20726;-43
2022/10/08 12:39:07;;;;;;;3.03;0.83;;;13.90;99.90;;;;;;5055453;28;20665;-45
2022/10/08 12:41:43;;;;;;;1.73;0.60;;;14.10;99.90;;;;;;5044786;28;20226;-45
2022/10/08 12:44:25;;;;;;;2.70;0.70;;;14.20;99.90;;;;;;5050971;28;20206;-44
2022/10/08 12:47:00;;;;;;;2.93;0.60;;;14.30;99.90;;;;;;5049627;28;20186;-44
2022/10/08 12:49:33;;;;;;;4.07;0.90;;;14.40;99.90;;;;;;5055127;28;20221;-43
2022/10/08 12:52:04;;;;;;;2.33;0.50;;;14.50;99.90;;;;;;5046946;28;20493;-43
2022/10/08 12:54:33;;;;;;;2.93;1.00;;;14.50;99.90;;;;;;5057768;28;20660;-44
2022/10/08 12:57:01;;;;;;;5.00;0.80;;;14.50;99.90;;;;;;5042455;28;20213;-44
2022/10/08 12:59:30;;;;;;;4.17;0.83;;;14.50;99.90;;;;;;5033123;28;20227;-46
2022/10/08 13:01:57;;;;;;;2.30;0.60;;;14.50;99.90;;;;;;5054922;28;20310;-47
2022/10/08 13:04:28;;;;;;;2.43;0.40;;;14.50;99.90;;;;;;5046848;28;20198;-43
2022/10/08 13:06:55;;;;;;;2.43;0.43;;;14.50;99.90;;;;;;5046593;28;20199;-49
2022/10/08 13:09:26;;;;;;;1.40;0.40;;;14.60;99.90;;;;;;5049554;28;20211;-42
2022/10/08 13:11:54;;;;;;;2.17;0.40;;;14.60;99.90;;;;;;5031765;28;20246;-43